sensor_id;sensor_type;location;lat;lon;timestamp;pressure;altitude;pressure_sealevel;temperature;humidity
20971;BME280;10644;48.834;10.088;2022-08-03T00:01:42;96770.91;;;26.12;46.73
20971;BME280;10644;48.834;10.088;2022-08-03T00:04:08;96770.75;;;26.13;46.80
20971;BME280;10644;48.834;10.088;2022-08-03T00:06:35;96764.78;;;26.19;46.79
20971;BME280;10644;48.834;10.088;2022-08-03T00:09:01;96762.63;;;26.23;46.49
20971;BME280;10644;48.834;10.088;2022-08-03T00:11:27;96756.56;;;26.22;46.33
20971;BME280;10644;48.834;10.088;2022-08-03T00:13:53;96763.34;;;26.17;46.73
20971;BME280;10644;48.834;10.088;2022-08-03T00:16:18;96754.81;;;26.15;46.67
20971;BME280;10644;48.834;10.088;2022-08-03T00:18:45;96767.41;;;26.19;46.54
20971;BME280;10644;48.834;10.088;2022-08-03T00:21:12;96757.06;;;26.18;46.35
20971;BME280;10644;48.834;10.088;2022-08-03T00:23:38;96760.28;;;25.83;47.36
20971;BME280;10644;48.834;10.088;2022-08-03T00:26:04;96760.44;;;25.59;47.92
20971;BME280;10644;48.834;10.088;2022-08-03T00:28:29;96750.31;;;25.48;47.92
20971;BME280;10644;48.834;10.088;2022-08-03T00:30:56;96742.91;;;25.59;47.81
20971;BME280;10644;48.834;10.088;2022-08-03T00:33:23;96748.25;;;25.66;47.78
20971;BME280;10644;48.834;10.088;2022-08-03T00:35:50;96749.84;;;25.75;47.66
20971;BME280;10644;48.834;10.088;2022-08-03T00:38:22;96761.59;;;25.79;47.87
20971;BME280;10644;48.834;10.088;2022-08-03T00:40:47;96749.44;;;25.86;47.75
20971;BME280;10644;48.834;10.088;2022-08-03T00:43:13;96746.63;;;25.65;47.74
20971;BME280;10644;48.834;10.088;2022-08-03T00:45:42;96749.94;;;25.59;47.91
20971;BME280;10644;48.834;10.088;2022-08-03T00:48:09;96754.66;;;25.63;47.94
20971;BME280;10644;48.834;10.088;2022-08-03T00:50:41;96750.53;;;25.69;47.50
20971;BME280;10644;48.834;10.088;2022-08-03T00:53:09;96754.09;;;25.76;47.61
20971;BME280;10644;48.834;10.088;2022-08-03T00:55:36;96749.19;;;25.73;47.82
20971;BME280;10644;48.834;10.088;2022-08-03T00:58:10;96753.72;;;25.79;47.36
20971;BME280;10644;48.834;10.088;2022-08-03T01:00:41;96748.84;;;25.76;47.38
20971;BME280;10644;48.834;10.088;2022-08-03T01:03:11;96756.59;;;25.39;48.59
20971;BME280;10644;48.834;10.088;2022-08-03T01:05:57;96758.63;;;25.29;48.22
20971;BME280;10644;48.834;10.088;2022-08-03T01:11:33;96745.84;;;25.26;47.95
20971;BME280;10644;48.834;10.088;2022-08-03T01:14:23;96753.66;;;25.34;48.05
20971;BME280;10644;48.834;10.088;2022-08-03T01:19:59;96755.53;;;25.17;48.36
20971;BME280;10644;48.834;10.088;2022-08-03T01:25:45;96741.25;;;25.28;48.17
20971;BME280;10644;48.834;10.088;2022-08-03T01:31:09;96742.53;;;25.32;48.24
20971;BME280;10644;48.834;10.088;2022-08-03T01:33:38;96738.13;;;25.32;48.41
20971;BME280;10644;48.834;10.088;2022-08-03T01:36:35;96736.13;;;25.34;47.99
20971;BME280;10644;48.834;10.088;2022-08-03T01:39:04;96732.50;;;25.35;48.40
20971;BME280;10644;48.834;10.088;2022-08-03T01:42:05;96735.03;;;25.29;47.92
20971;BME280;10644;48.834;10.088;2022-08-03T01:44:38;96736.06;;;25.12;48.50
20971;BME280;10644;48.834;10.088;2022-08-03T01:47:06;96737.63;;;24.82;49.49
20971;BME280;10644;48.834;10.088;2022-08-03T01:49:36;96738.78;;;24.72;49.59
20971;BME280;10644;48.834;10.088;2022-08-03T01:52:03;96732.72;;;24.79;49.54
20971;BME280;10644;48.834;10.088;2022-08-03T01:54:30;96731.59;;;24.66;50.02
20971;BME280;10644;48.834;10.088;2022-08-03T01:56:57;96722.66;;;24.28;51.12
20971;BME280;10644;48.834;10.088;2022-08-03T01:59:24;96733.31;;;24.03;51.47
20971;BME280;10644;48.834;10.088;2022-08-03T02:02:00;96735.75;;;24.20;50.74
20971;BME280;10644;48.834;10.088;2022-08-03T02:04:26;96734.59;;;24.39;50.70
20971;BME280;10644;48.834;10.088;2022-08-03T02:06:52;96732.91;;;24.54;50.25
20971;BME280;10644;48.834;10.088;2022-08-03T02:09:20;96733.44;;;24.57;49.84
20971;BME280;10644;48.834;10.088;2022-08-03T02:11:50;96732.28;;;24.44;50.16
20971;BME280;10644;48.834;10.088;2022-08-03T02:14:16;96719.56;;;24.33;50.52
20971;BME280;10644;48.834;10.088;2022-08-03T02:16:44;96730.16;;;24.39;50.43
20971;BME280;10644;48.834;10.088;2022-08-03T02:19:12;96728.34;;;24.48;50.46
20971;BME280;10644;48.834;10.088;2022-08-03T02:21:40;96728.03;;;24.51;50.21
20971;BME280;10644;48.834;10.088;2022-08-03T02:24:07;96722.16;;;24.41;50.18
20971;BME280;10644;48.834;10.088;2022-08-03T02:26:41;96716.94;;;24.25;50.36
20971;BME280;10644;48.834;10.088;2022-08-03T02:29:22;96721.38;;;24.08;50.62
20971;BME280;10644;48.834;10.088;2022-08-03T02:31:50;96723.81;;;24.10;51.00
20971;BME280;10644;48.834;10.088;2022-08-03T02:34:17;96716.28;;;24.15;50.87
20971;BME280;10644;48.834;10.088;2022-08-03T02:36:48;96717.91;;;24.24;50.69
20971;BME280;10644;48.834;10.088;2022-08-03T02:39:19;96720.53;;;24.24;50.63
20971;BME280;10644;48.834;10.088;2022-08-03T02:41:53;96715.63;;;24.29;50.39
20971;BME280;10644;48.834;10.088;2022-08-03T02:44:34;96719.03;;;24.37;50.21
20971;BME280;10644;48.834;10.088;2022-08-03T02:47:06;96715.94;;;24.34;50.19
20971;BME280;10644;48.834;10.088;2022-08-03T02:49:35;96710.34;;;24.37;50.26
20971;BME280;10644;48.834;10.088;2022-08-03T02:52:03;96713.78;;;24.45;50.19
20971;BME280;10644;48.834;10.088;2022-08-03T02:54:34;96707.38;;;24.48;50.17
20971;BME280;10644;48.834;10.088;2022-08-03T02:57:01;96696.09;;;24.47;50.14
20971;BME280;10644;48.834;10.088;2022-08-03T02:59:33;96707.72;;;24.53;49.69
20971;BME280;10644;48.834;10.088;2022-08-03T03:02:01;96702.47;;;24.53;49.94
20971;BME280;10644;48.834;10.088;2022-08-03T03:04:27;96707.72;;;24.53;50.01
20971;BME280;10644;48.834;10.088;2022-08-03T03:07:01;96713.94;;;24.44;49.69
20971;BME280;10644;48.834;10.088;2022-08-03T03:09:27;96700.84;;;24.44;50.20
20971;BME280;10644;48.834;10.088;2022-08-03T03:11:53;96701.66;;;24.44;50.10
20971;BME280;10644;48.834;10.088;2022-08-03T03:14:20;96704.94;;;24.46;50.20
20971;BME280;10644;48.834;10.088;2022-08-03T03:16:46;96706.47;;;24.33;50.19
20971;BME280;10644;48.834;10.088;2022-08-03T03:19:20;96698.28;;;24.04;50.67
20971;BME280;10644;48.834;10.088;2022-08-03T03:21:48;96709.75;;;23.95;51.00
20971;BME280;10644;48.834;10.088;2022-08-03T03:24:15;96698.97;;;23.90;50.79
20971;BME280;10644;48.834;10.088;2022-08-03T03:26:42;96709.75;;;24.03;50.97
20971;BME280;10644;48.834;10.088;2022-08-03T03:29:08;96686.84;;;23.97;50.69
20971;BME280;10644;48.834;10.088;2022-08-03T03:31:34;96710.41;;;24.05;50.67
20971;BME280;10644;48.834;10.088;2022-08-03T03:33:59;96713.03;;;24.13;50.40
20971;BME280;10644;48.834;10.088;2022-08-03T03:36:28;96716.59;;;24.20;50.04
20971;BME280;10644;48.834;10.088;2022-08-03T03:38:53;96709.09;;;24.17;50.31
20971;BME280;10644;48.834;10.088;2022-08-03T03:41:18;96712.03;;;24.22;50.33
20971;BME280;10644;48.834;10.088;2022-08-03T03:43:45;96714.94;;;24.27;50.13
20971;BME280;10644;48.834;10.088;2022-08-03T03:46:11;96716.63;;;24.28;50.23
20971;BME280;10644;48.834;10.088;2022-08-03T03:48:40;96709.25;;;24.15;50.26
20971;BME280;10644;48.834;10.088;2022-08-03T03:51:08;96712.38;;;24.03;50.03
20971;BME280;10644;48.834;10.088;2022-08-03T03:53:35;96708.13;;;23.94;50.85
20971;BME280;10644;48.834;10.088;2022-08-03T03:56:00;96709.91;;;23.85;51.09
20971;BME280;10644;48.834;10.088;2022-08-03T03:58:29;96710.22;;;23.74;51.22
20971;BME280;10644;48.834;10.088;2022-08-03T04:00:54;96709.06;;;23.69;51.27
20971;BME280;10644;48.834;10.088;2022-08-03T04:03:21;96708.72;;;23.64;51.63
20971;BME280;10644;48.834;10.088;2022-08-03T04:05:46;96715.91;;;23.70;51.35
20971;BME280;10644;48.834;10.088;2022-08-03T04:08:30;96703.19;;;23.67;51.47
20971;BME280;10644;48.834;10.088;2022-08-03T04:14:09;96713.16;;;23.87;51.06
20971;BME280;10644;48.834;10.088;2022-08-03T04:16:42;96700.22;;;23.86;50.86
20971;BME280;10644;48.834;10.088;2022-08-03T04:19:18;96711.06;;;23.91;50.67
20971;BME280;10644;48.834;10.088;2022-08-03T04:21:48;96707.75;;;23.81;50.69
20971;BME280;10644;48.834;10.088;2022-08-03T04:24:17;96710.66;;;23.54;51.65
20971;BME280;10644;48.834;10.088;2022-08-03T04:27:00;96719.03;;;23.57;51.83
20971;BME280;10644;48.834;10.088;2022-08-03T04:29:28;96720.50;;;23.60;51.84
20971;BME280;10644;48.834;10.088;2022-08-03T04:32:00;96720.50;;;23.68;51.62
20971;BME280;10644;48.834;10.088;2022-08-03T04:34:26;96724.44;;;23.72;51.49
20971;BME280;10644;48.834;10.088;2022-08-03T04:36:57;96724.09;;;23.75;51.27
20971;BME280;10644;48.834;10.088;2022-08-03T04:39:27;96727.03;;;23.64;51.62
20971;BME280;10644;48.834;10.088;2022-08-03T04:41:59;96727.00;;;23.48;52.13
20971;BME280;10644;48.834;10.088;2022-08-03T04:44:37;96726.69;;;23.51;51.79
20971;BME280;10644;48.834;10.088;2022-08-03T04:47:03;96725.22;;;23.56;51.83
20971;BME280;10644;48.834;10.088;2022-08-03T04:49:29;96727.03;;;23.56;51.79
20971;BME280;10644;48.834;10.088;2022-08-03T04:52:01;96723.78;;;23.62;51.78
20971;BME280;10644;48.834;10.088;2022-08-03T04:54:28;96725.88;;;23.66;51.37
20971;BME280;10644;48.834;10.088;2022-08-03T04:56:55;96722.78;;;23.55;52.09
20971;BME280;10644;48.834;10.088;2022-08-03T04:59:38;96731.28;;;23.57;51.74
20971;BME280;10644;48.834;10.088;2022-08-03T05:02:16;96725.72;;;23.52;52.32
20971;BME280;10644;48.834;10.088;2022-08-03T05:04:49;96733.56;;;23.52;52.40
20971;BME280;10644;48.834;10.088;2022-08-03T05:07:17;96727.34;;;23.45;52.87
20971;BME280;10644;48.834;10.088;2022-08-03T05:09:43;96724.56;;;23.46;52.62
20971;BME280;10644;48.834;10.088;2022-08-03T05:12:09;96730.00;;;23.61;52.30
20971;BME280;10644;48.834;10.088;2022-08-03T05:14:43;96732.63;;;23.77;51.63
20971;BME280;10644;48.834;10.088;2022-08-03T05:17:08;96733.13;;;23.80;51.71
20971;BME280;10644;48.834;10.088;2022-08-03T05:19:40;96734.97;;;23.88;51.86
20971;BME280;10644;48.834;10.088;2022-08-03T05:22:06;96734.31;;;23.94;51.89
20971;BME280;10644;48.834;10.088;2022-08-03T05:24:31;96732.34;;;23.96;51.70
20971;BME280;10644;48.834;10.088;2022-08-03T05:26:56;96737.41;;;24.13;51.69
20971;BME280;10644;48.834;10.088;2022-08-03T05:29:22;96735.25;;;24.25;51.27
20971;BME280;10644;48.834;10.088;2022-08-03T05:31:47;96742.63;;;24.37;51.23
20971;BME280;10644;48.834;10.088;2022-08-03T05:34:41;96735.09;;;24.42;51.07
20971;BME280;10644;48.834;10.088;2022-08-03T05:37:07;96740.94;;;24.52;50.96
20971;BME280;10644;48.834;10.088;2022-08-03T05:39:33;96734.56;;;24.55;50.93
20971;BME280;10644;48.834;10.088;2022-08-03T05:42:08;96734.75;;;24.61;50.59
20971;BME280;10644;48.834;10.088;2022-08-03T05:44:36;96745.38;;;24.68;50.40
20971;BME280;10644;48.834;10.088;2022-08-03T05:47:04;96741.78;;;24.69;50.25
20971;BME280;10644;48.834;10.088;2022-08-03T05:49:30;96733.88;;;24.77;50.59
20971;BME280;10644;48.834;10.088;2022-08-03T05:51:56;96735.34;;;24.87;50.09
20971;BME280;10644;48.834;10.088;2022-08-03T05:54:22;96737.44;;;24.92;49.86
20971;BME280;10644;48.834;10.088;2022-08-03T05:56:56;96742.00;;;24.98;49.89
20971;BME280;10644;48.834;10.088;2022-08-03T05:59:21;96737.22;;;25.01;50.10
20971;BME280;10644;48.834;10.088;2022-08-03T06:01:47;96737.53;;;25.14;49.74
20971;BME280;10644;48.834;10.088;2022-08-03T06:04:12;96740.25;;;25.21;49.84
20971;BME280;10644;48.834;10.088;2022-08-03T06:06:39;96736.34;;;25.25;49.79
20971;BME280;10644;48.834;10.088;2022-08-03T06:09:05;96744.06;;;25.26;49.71
20971;BME280;10644;48.834;10.088;2022-08-03T06:11:30;96733.34;;;25.36;49.76
20971;BME280;10644;48.834;10.088;2022-08-03T06:13:56;96743.16;;;25.42;49.43
20971;BME280;10644;48.834;10.088;2022-08-03T06:16:22;96743.44;;;25.47;49.77
20971;BME280;10644;48.834;10.088;2022-08-03T06:18:47;96738.13;;;25.55;49.33
20971;BME280;10644;48.834;10.088;2022-08-03T06:21:17;96731.56;;;25.59;49.44
20971;BME280;10644;48.834;10.088;2022-08-03T06:23:44;96729.25;;;25.64;49.25
20971;BME280;10644;48.834;10.088;2022-08-03T06:26:10;96739.97;;;25.77;49.28
20971;BME280;10644;48.834;10.088;2022-08-03T06:28:44;96742.88;;;25.82;49.16
20971;BME280;10644;48.834;10.088;2022-08-03T06:31:10;96728.75;;;25.83;49.13
20971;BME280;10644;48.834;10.088;2022-08-03T06:33:42;96741.88;;;25.91;48.90
20971;BME280;10644;48.834;10.088;2022-08-03T06:36:07;96741.81;;;25.99;49.26
20971;BME280;10644;48.834;10.088;2022-08-03T06:38:33;96739.47;;;26.04;48.68
20971;BME280;10644;48.834;10.088;2022-08-03T06:41:01;96743.41;;;26.08;48.57
20971;BME280;10644;48.834;10.088;2022-08-03T06:43:27;96729.25;;;26.09;48.25
20971;BME280;10644;48.834;10.088;2022-08-03T06:46:16;96737.06;;;26.17;48.31
20971;BME280;10644;48.834;10.088;2022-08-03T06:48:47;96736.00;;;26.26;48.03
20971;BME280;10644;48.834;10.088;2022-08-03T06:51:27;96733.66;;;26.31;47.66
20971;BME280;10644;48.834;10.088;2022-08-03T06:53:54;96735.88;;;26.42;47.31
20971;BME280;10644;48.834;10.088;2022-08-03T06:56:25;96737.13;;;26.46;46.99
20971;BME280;10644;48.834;10.088;2022-08-03T06:59:00;96737.31;;;26.44;46.90
20971;BME280;10644;48.834;10.088;2022-08-03T07:01:40;96744.72;;;26.41;46.55
20971;BME280;10644;48.834;10.088;2022-08-03T07:04:08;96744.81;;;26.47;46.77
20971;BME280;10644;48.834;10.088;2022-08-03T07:06:33;96750.53;;;26.51;46.53
20971;BME280;10644;48.834;10.088;2022-08-03T07:08:59;96745.06;;;26.60;46.28
20971;BME280;10644;48.834;10.088;2022-08-03T07:11:25;96750.06;;;26.70;45.85
20971;BME280;10644;48.834;10.088;2022-08-03T07:13:52;96743.25;;;26.75;45.65
20971;BME280;10644;48.834;10.088;2022-08-03T07:16:26;96741.47;;;26.90;45.74
20971;BME280;10644;48.834;10.088;2022-08-03T07:18:51;96738.81;;;27.05;44.56
20971;BME280;10644;48.834;10.088;2022-08-03T07:21:16;96733.16;;;27.08;44.03
20971;BME280;10644;48.834;10.088;2022-08-03T07:23:44;96733.28;;;27.14;44.17
20971;BME280;10644;48.834;10.088;2022-08-03T07:26:09;96730.94;;;27.19;43.87
20971;BME280;10644;48.834;10.088;2022-08-03T07:28:37;96732.09;;;27.31;44.01
20971;BME280;10644;48.834;10.088;2022-08-03T07:31:09;96732.34;;;27.36;43.87
20971;BME280;10644;48.834;10.088;2022-08-03T07:33:37;96716.66;;;27.43;43.67
20971;BME280;10644;48.834;10.088;2022-08-03T07:36:03;96729.25;;;27.47;42.55
20971;BME280;10644;48.834;10.088;2022-08-03T07:38:31;96728.94;;;27.57;42.81
20971;BME280;10644;48.834;10.088;2022-08-03T07:40:59;96720.94;;;27.65;40.29
20971;BME280;10644;48.834;10.088;2022-08-03T07:43:25;96721.72;;;27.80;40.65
20971;BME280;10644;48.834;10.088;2022-08-03T07:45:55;96727.13;;;27.93;40.51
20971;BME280;10644;48.834;10.088;2022-08-03T07:48:20;96726.16;;;28.00;39.50
20971;BME280;10644;48.834;10.088;2022-08-03T07:50:49;96716.56;;;28.14;39.72
20971;BME280;10644;48.834;10.088;2022-08-03T07:53:15;96726.16;;;28.21;39.94
20971;BME280;10644;48.834;10.088;2022-08-03T07:55:40;96726.00;;;28.29;39.91
20971;BME280;10644;48.834;10.088;2022-08-03T07:58:08;96730.47;;;28.29;39.72
20971;BME280;10644;48.834;10.088;2022-08-03T08:00:36;96718.44;;;28.41;40.10
20971;BME280;10644;48.834;10.088;2022-08-03T08:03:03;96720.25;;;28.68;40.18
20971;BME280;10644;48.834;10.088;2022-08-03T08:05:30;96713.00;;;28.83;40.02
20971;BME280;10644;48.834;10.088;2022-08-03T08:07:56;96721.56;;;28.85;39.81
20971;BME280;10644;48.834;10.088;2022-08-03T08:10:21;96717.63;;;29.02;39.84
20971;BME280;10644;48.834;10.088;2022-08-03T08:12:48;96716.66;;;29.16;39.16
20971;BME280;10644;48.834;10.088;2022-08-03T08:15:14;96708.59;;;29.30;38.78
20971;BME280;10644;48.834;10.088;2022-08-03T08:17:47;96716.19;;;29.53;38.95
20971;BME280;10644;48.834;10.088;2022-08-03T08:20:21;96722.34;;;29.60;38.77
20971;BME280;10644;48.834;10.088;2022-08-03T08:22:48;96729.66;;;29.58;38.38
20971;BME280;10644;48.834;10.088;2022-08-03T08:25:13;96719.31;;;29.76;38.17
20971;BME280;10644;48.834;10.088;2022-08-03T08:27:53;96715.91;;;29.88;37.96
20971;BME280;10644;48.834;10.088;2022-08-03T08:30:23;96711.81;;;29.92;38.16
20971;BME280;10644;48.834;10.088;2022-08-03T08:32:49;96706.38;;;30.13;38.18
20971;BME280;10644;48.834;10.088;2022-08-03T08:35:17;96713.91;;;30.29;37.76
20971;BME280;10644;48.834;10.088;2022-08-03T08:37:44;96716.34;;;30.44;36.82
20971;BME280;10644;48.834;10.088;2022-08-03T08:40:09;96708.19;;;30.58;37.00
20971;BME280;10644;48.834;10.088;2022-08-03T08:42:39;96711.03;;;30.76;36.65
20971;BME280;10644;48.834;10.088;2022-08-03T08:45:05;96716.72;;;30.86;36.09
20971;BME280;10644;48.834;10.088;2022-08-03T08:47:36;96708.13;;;30.97;35.90
20971;BME280;10644;48.834;10.088;2022-08-03T08:50:02;96714.97;;;31.18;35.59
20971;BME280;10644;48.834;10.088;2022-08-03T08:52:28;96696.44;;;31.18;35.10
20971;BME280;10644;48.834;10.088;2022-08-03T08:54:58;96699.34;;;31.10;35.26
20971;BME280;10644;48.834;10.088;2022-08-03T08:57:28;96709.69;;;31.31;35.02
20971;BME280;10644;48.834;10.088;2022-08-03T08:59:55;96706.50;;;31.53;34.68
20971;BME280;10644;48.834;10.088;2022-08-03T09:02:24;96707.84;;;31.69;34.63
20971;BME280;10644;48.834;10.088;2022-08-03T09:04:56;96714.09;;;31.81;34.25
20971;BME280;10644;48.834;10.088;2022-08-03T09:07:29;96708.97;;;31.86;34.10
20971;BME280;10644;48.834;10.088;2022-08-03T09:09:54;96711.38;;;31.94;33.13
20971;BME280;10644;48.834;10.088;2022-08-03T09:12:20;96711.25;;;32.13;33.53
20971;BME280;10644;48.834;10.088;2022-08-03T09:14:46;96708.81;;;32.12;32.53
20971;BME280;10644;48.834;10.088;2022-08-03T09:17:17;96711.25;;;32.13;33.83
20971;BME280;10644;48.834;10.088;2022-08-03T09:20:10;96709.91;;;32.29;33.88
20971;BME280;10644;48.834;10.088;2022-08-03T09:25:17;96703.50;;;32.61;32.76
20971;BME280;10644;48.834;10.088;2022-08-03T09:27:44;96708.00;;;32.85;32.66
20971;BME280;10644;48.834;10.088;2022-08-03T09:30:15;96701.28;;;33.00;32.36
20971;BME280;10644;48.834;10.088;2022-08-03T09:32:45;96709.00;;;33.20;32.47
20971;BME280;10644;48.834;10.088;2022-08-03T09:35:12;96715.47;;;33.30;31.09
20971;BME280;10644;48.834;10.088;2022-08-03T09:37:38;96707.78;;;33.04;30.68
20971;BME280;10644;48.834;10.088;2022-08-03T09:40:33;96709.38;;;33.23;31.67
20971;BME280;10644;48.834;10.088;2022-08-03T09:42:59;96702.53;;;32.98;30.83
20971;BME280;10644;48.834;10.088;2022-08-03T09:45:42;96704.59;;;32.96;30.92
20971;BME280;10644;48.834;10.088;2022-08-03T09:48:28;96690.28;;;32.97;29.93
20971;BME280;10644;48.834;10.088;2022-08-03T09:51:00;96693.53;;;32.81;30.93
20971;BME280;10644;48.834;10.088;2022-08-03T09:53:27;96694.91;;;33.01;30.40
20971;BME280;10644;48.834;10.088;2022-08-03T09:56:00;96699.00;;;33.40;31.11
20971;BME280;10644;48.834;10.088;2022-08-03T09:58:30;96705.38;;;33.50;30.18
20971;BME280;10644;48.834;10.088;2022-08-03T10:00:59;96705.16;;;33.52;30.10
20971;BME280;10644;48.834;10.088;2022-08-03T10:03:27;96700.63;;;33.70;30.16
20971;BME280;10644;48.834;10.088;2022-08-03T10:05:54;96691.69;;;33.65;29.61
20971;BME280;10644;48.834;10.088;2022-08-03T10:08:19;96694.13;;;33.96;29.39
20971;BME280;10644;48.834;10.088;2022-08-03T10:10:53;96679.94;;;34.25;28.23
20971;BME280;10644;48.834;10.088;2022-08-03T10:13:21;96683.06;;;34.22;28.38
20971;BME280;10644;48.834;10.088;2022-08-03T10:15:49;96680.09;;;34.30;28.23
20971;BME280;10644;48.834;10.088;2022-08-03T10:18:21;96676.16;;;34.67;28.21
20971;BME280;10644;48.834;10.088;2022-08-03T10:21:06;96669.47;;;34.76;28.33
20971;BME280;10644;48.834;10.088;2022-08-03T10:23:40;96680.56;;;34.61;28.02
20971;BME280;10644;48.834;10.088;2022-08-03T10:26:09;96668.03;;;34.85;27.88
20971;BME280;10644;48.834;10.088;2022-08-03T10:28:40;96678.91;;;34.95;27.49
20971;BME280;10644;48.834;10.088;2022-08-03T10:31:09;96681.78;;;35.16;27.38
20971;BME280;10644;48.834;10.088;2022-08-03T10:33:42;96672.38;;;35.37;27.15
20971;BME280;10644;48.834;10.088;2022-08-03T10:36:09;96671.59;;;35.53;26.03
20971;BME280;10644;48.834;10.088;2022-08-03T10:38:42;96669.78;;;35.42;26.50
20971;BME280;10644;48.834;10.088;2022-08-03T10:41:12;96675.19;;;35.19;26.37
20971;BME280;10644;48.834;10.088;2022-08-03T10:44:02;96672.66;;;35.01;26.72
20971;BME280;10644;48.834;10.088;2022-08-03T10:46:28;96662.97;;;35.23;26.57
20971;BME280;10644;48.834;10.088;2022-08-03T10:48:54;96661.16;;;35.51;25.95
20971;BME280;10644;48.834;10.088;2022-08-03T10:51:23;96660.03;;;35.75;25.77
20971;BME280;10644;48.834;10.088;2022-08-03T10:53:49;96655.28;;;35.94;26.46
20971;BME280;10644;48.834;10.088;2022-08-03T11:02:15;96641.44;;;35.97;25.67
20971;BME280;10644;48.834;10.088;2022-08-03T11:05:25;96652.94;;;35.53;25.72
20971;BME280;10644;48.834;10.088;2022-08-03T11:10:47;96643.66;;;35.16;26.35
20971;BME280;10644;48.834;10.088;2022-08-03T11:13:18;96637.00;;;35.30;26.51
20971;BME280;10644;48.834;10.088;2022-08-03T11:15:53;96647.84;;;35.68;26.21
20971;BME280;10644;48.834;10.088;2022-08-03T11:18:19;96639.84;;;36.12;26.09
20971;BME280;10644;48.834;10.088;2022-08-03T11:20:55;96629.97;;;36.46;25.50
20971;BME280;10644;48.834;10.088;2022-08-03T11:23:42;96638.38;;;36.71;25.47
20971;BME280;10644;48.834;10.088;2022-08-03T11:28:40;96644.09;;;37.01;25.13
20971;BME280;10644;48.834;10.088;2022-08-03T11:34:03;96636.00;;;36.96;25.64
20971;BME280;10644;48.834;10.088;2022-08-03T11:39:43;96640.00;;;37.15;24.83
20971;BME280;10644;48.834;10.088;2022-08-03T11:44:49;96640.69;;;37.27;24.40
20971;BME280;10644;48.834;10.088;2022-08-03T11:47:19;96638.91;;;37.59;24.00
20971;BME280;10644;48.834;10.088;2022-08-03T11:49:49;96640.13;;;37.25;24.17
20971;BME280;10644;48.834;10.088;2022-08-03T11:52:17;96632.75;;;37.37;24.03
20971;BME280;10644;48.834;10.088;2022-08-03T11:54:43;96641.66;;;37.42;23.86
20971;BME280;10644;48.834;10.088;2022-08-03T11:57:09;96627.81;;;37.24;24.11
20971;BME280;10644;48.834;10.088;2022-08-03T11:59:44;96634.53;;;37.05;25.26
20971;BME280;10644;48.834;10.088;2022-08-03T12:02:11;96630.50;;;37.24;24.36
20971;BME280;10644;48.834;10.088;2022-08-03T12:04:58;96621.63;;;37.45;24.61
20971;BME280;10644;48.834;10.088;2022-08-03T12:07:29;96624.25;;;37.66;24.30
20971;BME280;10644;48.834;10.088;2022-08-03T12:10:14;96624.25;;;37.40;24.77
20971;BME280;10644;48.834;10.088;2022-08-03T12:12:40;96632.69;;;37.53;24.22
20971;BME280;10644;48.834;10.088;2022-08-03T12:15:08;96625.19;;;37.29;24.21
20971;BME280;10644;48.834;10.088;2022-08-03T12:21:29;96610.34;;;37.43;23.62
20971;BME280;10644;48.834;10.088;2022-08-03T12:24:02;96617.78;;;37.36;23.59
20971;BME280;10644;48.834;10.088;2022-08-03T12:26:29;96620.25;;;37.42;24.30
20971;BME280;10644;48.834;10.088;2022-08-03T12:29:06;96612.44;;;37.89;23.74
20971;BME280;10644;48.834;10.088;2022-08-03T12:31:31;96614.09;;;38.26;22.79
20971;BME280;10644;48.834;10.088;2022-08-03T12:36:53;96609.13;;;38.08;23.70
20971;BME280;10644;48.834;10.088;2022-08-03T12:39:24;96604.69;;;38.24;22.71
20971;BME280;10644;48.834;10.088;2022-08-03T12:41:53;96606.47;;;38.50;23.07
20971;BME280;10644;48.834;10.088;2022-08-03T12:44:31;96598.03;;;37.95;22.72
20971;BME280;10644;48.834;10.088;2022-08-03T12:47:01;96599.97;;;37.99;23.57
20971;BME280;10644;48.834;10.088;2022-08-03T12:49:27;96599.84;;;38.21;22.99
20971;BME280;10644;48.834;10.088;2022-08-03T12:54:23;96585.53;;;38.42;22.54
20971;BME280;10644;48.834;10.088;2022-08-03T12:57:12;96593.63;;;38.52;22.42
20971;BME280;10644;48.834;10.088;2022-08-03T13:02:22;96591.19;;;38.97;22.49
20971;BME280;10644;48.834;10.088;2022-08-03T13:04:56;96591.00;;;39.23;22.25
20971;BME280;10644;48.834;10.088;2022-08-03T13:07:23;96590.25;;;39.33;21.71
20971;BME280;10644;48.834;10.088;2022-08-03T13:09:51;96597.00;;;39.50;21.45
20971;BME280;10644;48.834;10.088;2022-08-03T13:12:27;96601.53;;;39.50;21.41
20971;BME280;10644;48.834;10.088;2022-08-03T13:14:56;96596.94;;;39.30;21.53
20971;BME280;10644;48.834;10.088;2022-08-03T13:17:28;96586.06;;;37.76;22.55
20971;BME280;10644;48.834;10.088;2022-08-03T13:19:54;96589.47;;;37.66;22.98
20971;BME280;10644;48.834;10.088;2022-08-03T13:22:26;96581.97;;;37.95;22.58
20971;BME280;10644;48.834;10.088;2022-08-03T13:24:55;96587.53;;;37.88;22.48
20971;BME280;10644;48.834;10.088;2022-08-03T13:27:22;96582.81;;;37.69;22.32
20971;BME280;10644;48.834;10.088;2022-08-03T13:29:48;96578.78;;;37.40;23.06
20971;BME280;10644;48.834;10.088;2022-08-03T13:32:13;96581.38;;;37.35;23.22
20971;BME280;10644;48.834;10.088;2022-08-03T13:34:39;96577.00;;;37.82;22.29
20971;BME280;10644;48.834;10.088;2022-08-03T13:37:06;96571.50;;;37.62;22.41
20971;BME280;10644;48.834;10.088;2022-08-03T13:39:33;96578.97;;;37.60;22.44
20971;BME280;10644;48.834;10.088;2022-08-03T13:41:58;96573.47;;;38.03;22.18
20971;BME280;10644;48.834;10.088;2022-08-03T13:44:23;96577.41;;;38.32;22.03
20971;BME280;10644;48.834;10.088;2022-08-03T13:46:50;96577.59;;;38.62;21.58
20971;BME280;10644;48.834;10.088;2022-08-03T13:49:15;96574.25;;;38.40;22.01
20971;BME280;10644;48.834;10.088;2022-08-03T13:51:41;96550.53;;;38.22;21.90
20971;BME280;10644;48.834;10.088;2022-08-03T13:54:08;96558.06;;;38.25;22.32